»·PEaware :: N404PM KSJC-KLAX

N404PM :: KSJC-KLAX

FLIGHT INFORMATION

Flight Status: Arrived
Operator: Privately registered:
United States
More flights under this callsign
Pilot: Scott M. (2887)
Aircraft: CESSNA 404 TITAN
(C404)
More flights by this aircraft type
Origin: KSJC Mineta San Jose Intl
United States
Destination: KLAX Los Angeles Intl
United States
More flights between these airports :: More routes between these airports
Route: +SJC2 AVE GMN LHS KIMMO3
File this flight plan on PilotEdge
Remarks:
Altitude:
(Current/Filed)
12,000ft
Speed:
(Current/Filed)
165kts
Departed: 16-May-18 11:00 AM
Arrived: 16-May-18 12:47 PM
Distance/Time
Traveled:
268nm/1:47
Distance/Time
To Go:
Arrived

Flight Plot

Page will automatically refresh every two minutes.

Flight plan parsing failed; only flown route is shown


Map Options




Map Legend


Flown Route
Filed Route
Departure Airport
Arrival Airport
Navaid (VOR, NDB)
Fix

Horizontal Profiles

Position Reports

Time Latitude Longitude Heading Altitude Ground
Speed
16-May-18 10:26 37.358196 -121.930448 229 66ft 0kts
16-May-18 10:27 37.358196 -121.930448 229 66ft 0kts
16-May-18 10:28 37.358196 -121.930448 229 66ft 0kts
16-May-18 10:29 37.358196 -121.930448 229 66ft 0kts
16-May-18 10:30 37.358196 -121.930448 229 66ft 0kts
16-May-18 10:31 37.358196 -121.930448 229 66ft 0kts
16-May-18 10:32 37.358196 -121.930448 229 66ft 0kts
16-May-18 10:33 37.358196 -121.930448 229 66ft 0kts
16-May-18 10:34 37.358196 -121.930448 229 66ft 0kts
16-May-18 10:35 37.358196 -121.930448 229 66ft 0kts
16-May-18 10:36 37.358196 -121.930448 229 66ft 0kts
16-May-18 10:37 37.358195 -121.930450 229 66ft 0kts
16-May-18 10:38 37.358193 -121.930453 229 66ft 0kts
16-May-18 10:39 37.358192 -121.930454 229 66ft 0kts
16-May-18 10:40 37.358192 -121.930454 229 66ft 0kts
16-May-18 10:41 37.358192 -121.930454 229 66ft 0kts
16-May-18 10:42 37.358192 -121.930454 229 66ft 0kts
16-May-18 10:43 37.358192 -121.930455 229 66ft 0kts
16-May-18 10:44 37.358190 -121.930458 229 66ft 0kts
16-May-18 10:45 37.358188 -121.930461 229 66ft 0kts
16-May-18 10:46 37.358184 -121.930466 229 66ft 0kts
16-May-18 10:47 37.358203 -121.930187 54 66ft 0kts
16-May-18 10:48 37.357400 -121.928807 140 66ft 8kts
16-May-18 10:49 37.354639 -121.925761 137 66ft 11kts
16-May-18 10:50 37.355114 -121.923960 77 66ft 6kts
16-May-18 10:51 37.353173 -121.921677 142 66ft 3kts
16-May-18 10:52 37.352516 -121.920277 72 66ft 3kts
16-May-18 10:53 37.352580 -121.920198 4 66ft 0kts
16-May-18 10:54 37.352592 -121.920197 4 66ft 0kts
16-May-18 10:55 37.352604 -121.920196 4 66ft 0kts
16-May-18 10:56 37.352607 -121.920195 4 66ft 0kts
16-May-18 10:57 37.352609 -121.920195 4 66ft 0kts
16-May-18 10:58 37.352711 -121.920103 60 66ft 0kts
16-May-18 10:59 37.353015 -121.919681 45 66ft 9kts
16-May-18 11:00 37.364986 -121.932522 317 441ft 87kts
16-May-18 11:01 37.383605 -121.951929 320 1666ft 85kts
16-May-18 11:02 37.403922 -121.970009 345 2712ft 104kts
16-May-18 11:03 37.410148 -121.941221 124 3830ft 109kts
16-May-18 11:04 37.394358 -121.910852 124 5044ft 103kts
16-May-18 11:05 37.380147 -121.879592 104 6166ft 104kts
16-May-18 11:06 37.374442 -121.845377 110 7239ft 100kts
16-May-18 11:07 37.367898 -121.810152 105 8301ft 107kts
16-May-18 11:08 37.356769 -121.774711 124 9467ft 110kts
16-May-18 11:09 37.335567 -121.746693 144 10624ft 112kts
16-May-18 11:10 37.308414 -121.726161 153 11762ft 115kts
16-May-18 11:11 37.279639 -121.705947 149 12920ft 121kts
16-May-18 11:12 37.245926 -121.673744 139 13043ft 180kts
16-May-18 11:13 37.210409 -121.627584 133 13029ft 180kts
16-May-18 11:14 37.177067 -121.582405 140 13034ft 175kts
16-May-18 11:15 37.141536 -121.540268 138 13034ft 176kts
16-May-18 11:16 37.098783 -121.514607 166 13032ft 171kts
16-May-18 11:17 37.057249 -121.494954 165 13030ft 184kts
16-May-18 11:18 37.007468 -121.475345 167 13028ft 183kts
16-May-18 11:19 36.961233 -121.457103 167 13029ft 167kts
16-May-18 11:20 36.917379 -121.437797 158 13033ft 169kts
16-May-18 11:21 36.882817 -121.395388 135 13015ft 178kts
16-May-18 11:22 36.850518 -121.347172 135 13042ft 191kts
16-May-18 11:23 36.816830 -121.297645 135 13012ft 183kts
16-May-18 11:24 36.784190 -121.249600 135 13013ft 179kts
16-May-18 11:25 36.751590 -121.202832 138 13013ft 177kts
16-May-18 11:26 36.717866 -121.158168 139 13016ft 177kts
16-May-18 11:27 36.682038 -121.116387 145 13015ft 176kts
16-May-18 11:28 36.645330 -121.075550 145 13014ft 177kts
16-May-18 11:29 36.608304 -121.034733 145 13014ft 178kts
16-May-18 11:30 36.570753 -120.994458 148 13013ft 177kts
16-May-18 11:31 36.532562 -120.956376 152 13056ft 173kts
16-May-18 11:32 36.493873 -120.921297 155 13059ft 170kts
16-May-18 11:33 36.455422 -120.886072 155 12981ft 171kts
16-May-18 11:34 36.420036 -120.845002 150 12982ft 172kts
16-May-18 11:35 36.386848 -120.800182 136 12982ft 178kts
16-May-18 11:36 36.358521 -120.748584 133 13000ft 182kts
16-May-18 11:37 36.328365 -120.698493 143 13018ft 178kts
16-May-18 11:38 36.293712 -120.656519 155 13042ft 170kts
16-May-18 11:39 36.255196 -120.623763 162 13040ft 166kts
16-May-18 11:40 36.215680 -120.593393 160 13038ft 169kts
16-May-18 11:41 36.176858 -120.557722 152 13040ft 177kts
16-May-18 11:42 36.140175 -120.515286 146 13039ft 183kts
16-May-18 11:43 36.104498 -120.469688 146 13039ft 184kts
16-May-18 11:44 36.068053 -120.426235 151 13035ft 179kts
16-May-18 11:45 36.030257 -120.386954 155 13033ft 176kts
16-May-18 11:46 35.991948 -120.348996 154 13031ft 176kts
16-May-18 11:47 35.954427 -120.309819 152 13031ft 177kts
16-May-18 11:48 35.917627 -120.268998 151 13032ft 178kts
16-May-18 11:49 35.880542 -120.228246 152 13031ft 178kts
16-May-18 11:50 35.843140 -120.188499 152 13034ft 177kts
16-May-18 11:51 35.805868 -120.148783 152 13033ft 177kts
16-May-18 11:52 35.768508 -120.108576 152 13031ft 178kts
16-May-18 11:53 35.728216 -120.077902 159 13031ft 174kts
16-May-18 11:54 35.690145 -120.038889 150 13031ft 180kts
16-May-18 11:55 35.654279 -119.995155 143 13031ft 184kts
16-May-18 11:56 35.616739 -119.954662 148 13032ft 181kts
16-May-18 11:57 35.581019 -119.909962 144 13031ft 183kts
16-May-18 11:58 35.546409 -119.864072 144 13032ft 182kts
16-May-18 11:59 35.512381 -119.818247 144 13034ft 181kts
16-May-18 12:00 35.478092 -119.772321 143 13031ft 183kts
16-May-18 12:01 35.443353 -119.726208 142 13031ft 185kts
16-May-18 12:02 35.407643 -119.680819 146 13032ft 184kts
16-May-18 12:03 35.370507 -119.636639 143 13031ft 186kts
16-May-18 12:04 35.335178 -119.589726 139 13032ft 188kts
16-May-18 12:05 35.303054 -119.540611 139 13031ft 186kts
16-May-18 12:06 35.274750 -119.498286 141 13027ft 181kts
16-May-18 12:07 35.242738 -119.451727 142 13030ft 178kts
16-May-18 12:08 35.211088 -119.405099 140 13039ft 177kts
16-May-18 12:09 35.180423 -119.357584 138 13040ft 178kts
16-May-18 12:10 35.151114 -119.310023 137 13038ft 179kts
16-May-18 12:11 35.121193 -119.260929 138 13039ft 179kts
16-May-18 12:12 35.090874 -119.212492 139 13040ft 179kts
16-May-18 12:13 35.060129 -119.164837 139 13072ft 177kts
16-May-18 12:14 35.029368 -119.117574 139 13086ft 178kts
16-May-18 12:15 34.998637 -119.069951 139 13086ft 179kts
16-May-18 12:16 34.968053 -119.021713 138 13082ft 181kts
16-May-18 12:17 34.937219 -118.972968 139 13082ft 181kts
16-May-18 12:18 34.906222 -118.924503 139 13073ft 182kts
16-May-18 12:19 34.875049 -118.876105 139 13082ft 181kts
16-May-18 12:20 34.844111 -118.827924 139 13082ft 180kts
16-May-18 12:21 34.813265 -118.779638 139 13083ft 181kts
16-May-18 12:22 34.782222 -118.731271 139 13082ft 181kts
16-May-18 12:23 34.751209 -118.683077 139 13083ft 181kts
16-May-18 12:24 34.720162 -118.634966 140 13080ft 181kts
16-May-18 12:25 34.688670 -118.589153 147 13082ft 176kts
16-May-18 12:26 34.651318 -118.554064 170 13057ft 161kts
16-May-18 12:27 34.609955 -118.533702 168 13054ft 162kts
16-May-18 12:28 34.569796 -118.507287 169 13056ft 162kts
16-May-18 12:29 34.529025 -118.485293 168 13060ft 162kts
16-May-18 12:30 34.488405 -118.461623 169 13058ft 161kts
16-May-18 12:31 34.447740 -118.438222 168 13058ft 162kts
16-May-18 12:32 34.407073 -118.414230 168 13061ft 163kts
16-May-18 12:33 34.365978 -118.389985 168 12982ft 168kts
16-May-18 12:34 34.320240 -118.365586 169 12314ft 185kts
16-May-18 12:35 34.271992 -118.341323 169 11520ft 188kts
16-May-18 12:36 34.223996 -118.317928 169 10615ft 183kts
16-May-18 12:37 34.176719 -118.295804 168 9552ft 179kts
16-May-18 12:38 34.131433 -118.276120 168 8450ft 168kts
16-May-18 12:39 34.087324 -118.257942 169 7390ft 170kts
16-May-18 12:40 34.041988 -118.238781 169 6378ft 172kts
16-May-18 12:41 33.997423 -118.232039 191 5546ft 142kts
16-May-18 12:42 33.964129 -118.251690 224 4504ft 138kts
16-May-18 12:43 33.946058 -118.288257 266 3393ft 119kts
16-May-18 12:44 33.942651 -118.331846 260 2021ft 111kts
16-May-18 12:45 33.939603 -118.362866 259 665ft 113kts
16-May-18 12:46 33.936644 -118.391907 263 131ft 48kts
16-May-18 12:47 33.935548 -118.401345 236 130ft 23kts
16-May-18 12:48 33.934131 -118.402585 92 130ft 7kts
16-May-18 12:49 33.934454 -118.399275 82 130ft 22kts
16-May-18 12:50 33.933056 -118.399033 228 130ft 3kts
16-May-18 12:51 33.933015 -118.399287 263 130ft 0kts
16-May-18 12:52 33.933015 -118.399287 263 130ft 0kts

Navigation Log

Ident Type
Flight plan parsing failed, navigation log unavailable